South River, Canada
Current Conditions -  °F | °C
As of 4:00 PM on Friday 19 Dec 2014 (Local Time) from CYQA Reporting Station
Clear Clear  
Wind Chill: 14°   Ceiling: Unl
Heat Index: 21°   Visibility: 9mi
Dew Point: 16°   Wind: 6mph
Humidity: 80%   Direction: 300°WNW
Pressure: 30.18"   Gusts: NA
Location:  45.85°N, 79.37°W
Report Text: CYQA 192100Z AUTO 30005KT 9SM CLR M06/M09 A3018 RMK SLP240
Loading
Personal Weather Stations






























Interactive Weather Map New forecast layout! Learn more

10-Day Weather Forecast

Advertisements
Track Severe Weather on mobile